createdAt,value
2022-10-11T00:01:41.438Z,4.20
2022-10-11T00:04:08.077Z,4.10
2022-10-11T00:06:34.702Z,4.70
2022-10-11T00:09:01.284Z,4.20
2022-10-11T00:11:27.787Z,4.90
2022-10-11T00:13:54.360Z,4.70
2022-10-11T00:16:21.156Z,5.00
2022-10-11T00:18:47.708Z,4.18
2022-10-11T00:21:16.111Z,4.77
2022-10-11T00:23:43.345Z,3.65
2022-10-11T00:26:11.270Z,4.03
2022-10-11T00:28:38.284Z,3.92
2022-10-11T00:31:10.069Z,4.00
2022-10-11T00:33:36.665Z,3.63
2022-10-11T00:36:04.165Z,4.30
2022-10-11T00:38:32.091Z,3.38
2022-10-11T00:40:59.619Z,5.07
2022-10-11T00:43:28.713Z,4.18
2022-10-11T00:45:58.260Z,3.93
2022-10-11T00:48:32.588Z,4.03
2022-10-11T00:51:03.016Z,4.05
2022-10-11T00:53:31.322Z,4.03
2022-10-11T00:56:09.857Z,3.97
2022-10-11T00:58:38.216Z,3.47
2022-10-11T01:01:05.172Z,4.57
2022-10-11T01:03:33.024Z,3.58
2022-10-11T01:05:59.593Z,4.20
2022-10-11T01:08:27.211Z,4.13
2022-10-11T01:10:54.233Z,4.00
2022-10-11T01:13:47.513Z,4.53
2022-10-11T01:16:23.030Z,4.07
2022-10-11T01:19:08.109Z,3.72
2022-10-11T01:21:40.574Z,3.72
2022-10-11T01:24:26.339Z,3.70
2022-10-11T01:27:13.462Z,4.20
2022-10-11T01:30:01.640Z,3.92
2022-10-11T01:32:37.892Z,4.78
2022-10-11T01:35:16.812Z,4.53
2022-10-11T01:37:48.996Z,4.50
2022-10-11T01:40:24.785Z,4.03
2022-10-11T01:42:53.010Z,4.55
2022-10-11T01:45:20.652Z,3.92
2022-10-11T01:47:47.569Z,4.85
2022-10-11T01:50:51.272Z,3.97
2022-10-11T01:53:30.882Z,3.20
2022-10-11T01:56:01.752Z,3.10
2022-10-11T01:58:48.610Z,3.35
2022-10-11T02:01:26.935Z,3.60
2022-10-11T02:04:38.393Z,3.23
2022-10-11T02:07:19.667Z,3.17
2022-10-11T02:09:52.385Z,4.53
2022-10-11T02:12:30.788Z,3.60
2022-10-11T02:14:58.924Z,3.97
2022-10-11T02:17:33.955Z,3.70
2022-10-11T02:20:06.401Z,3.88
2022-10-11T02:22:37.061Z,3.70
2022-10-11T02:25:08.784Z,4.00
2022-10-11T02:27:38.792Z,3.90
2022-10-11T02:30:07.764Z,3.40
2022-10-11T02:32:38.048Z,4.00
2022-10-11T02:35:05.036Z,3.60
2022-10-11T02:37:52.776Z,4.20
2022-10-11T02:40:29.405Z,4.28
2022-10-11T02:43:11.028Z,3.73
2022-10-11T02:46:01.413Z,4.10
2022-10-11T02:48:29.525Z,4.03
2022-10-11T02:50:57.750Z,4.10
2022-10-11T02:53:26.542Z,3.95
2022-10-11T02:55:54.767Z,4.33
2022-10-11T02:58:22.349Z,3.88
2022-10-11T03:00:49.372Z,4.50
2022-10-11T03:03:15.900Z,3.65
2022-10-11T03:05:43.564Z,3.63
2022-10-11T03:08:15.309Z,3.70
2022-10-11T03:10:42.470Z,3.55
2022-10-11T03:13:09.126Z,3.60
2022-10-11T03:15:35.686Z,3.42
2022-10-11T03:18:02.295Z,4.50
2022-10-11T03:20:28.781Z,3.60
2022-10-11T03:22:55.270Z,3.85
2022-10-11T03:25:21.839Z,3.33
2022-10-11T03:27:48.366Z,3.58
2022-10-11T03:30:18.405Z,3.15
2022-10-11T03:32:45.176Z,3.17
2022-10-11T03:35:11.756Z,3.78
2022-10-11T03:37:38.256Z,3.80
2022-10-11T03:40:08.237Z,2.63
2022-10-11T03:42:35.309Z,3.08
2022-10-11T03:45:04.898Z,3.47
2022-10-11T03:47:32.127Z,3.25
2022-10-11T03:49:58.678Z,3.15
2022-10-11T03:52:25.239Z,3.15
2022-10-11T03:54:51.873Z,2.97
2022-10-11T03:57:18.374Z,3.43
2022-10-11T03:59:44.880Z,3.15
2022-10-11T04:02:11.438Z,3.65
2022-10-11T04:04:38.025Z,3.20
2022-10-11T04:07:04.527Z,3.60
2022-10-11T04:09:31.110Z,2.93
2022-10-11T04:11:57.601Z,2.92
2022-10-11T04:14:24.192Z,2.95
2022-10-11T04:16:50.762Z,3.40
2022-10-11T04:19:17.281Z,3.20
2022-10-11T04:21:43.920Z,2.87
2022-10-11T04:24:13.290Z,2.80
2022-10-11T04:26:39.911Z,2.90
2022-10-11T04:29:06.410Z,3.60
2022-10-11T04:31:32.883Z,3.30
2022-10-11T04:33:59.515Z,3.23
2022-10-11T04:36:26.064Z,3.58
2022-10-11T04:38:52.804Z,4.03
2022-10-11T04:41:19.279Z,3.65
2022-10-11T04:43:45.815Z,3.72
2022-10-11T04:46:15.311Z,3.67
2022-10-11T04:48:41.954Z,3.22
2022-10-11T04:51:08.760Z,3.88
2022-10-11T04:53:35.241Z,3.97
2022-10-11T04:56:05.081Z,3.72
2022-10-11T04:58:35.679Z,3.50
2022-10-11T05:01:02.250Z,4.20
2022-10-11T05:03:28.780Z,3.78
2022-10-11T05:05:55.349Z,3.78
2022-10-11T05:08:25.303Z,3.35
2022-10-11T05:11:02.646Z,4.23
2022-10-11T05:13:30.071Z,3.83
2022-10-11T05:15:57.329Z,3.53
2022-10-11T05:18:24.802Z,2.90
2022-10-11T05:21:14.766Z,3.45
2022-10-11T05:23:41.945Z,3.13
2022-10-11T05:26:08.895Z,3.17
2022-10-11T05:28:35.567Z,4.03
2022-10-11T05:31:02.091Z,4.35
2022-10-11T05:33:28.687Z,4.03
2022-10-11T05:35:55.313Z,3.63
2022-10-11T05:38:22.836Z,3.65
2022-10-11T05:40:49.784Z,3.85
2022-10-11T05:43:16.495Z,4.25
2022-10-11T05:45:44.056Z,3.78
2022-10-11T05:48:11.134Z,4.50
2022-10-11T05:50:38.451Z,4.47
2022-10-11T05:53:05.966Z,3.85
2022-10-11T05:55:39.330Z,3.60
2022-10-11T05:58:06.767Z,3.70
2022-10-11T06:00:36.764Z,4.33
2022-10-11T06:03:03.842Z,3.65
2022-10-11T06:05:30.339Z,4.30
2022-10-11T06:07:58.281Z,4.55
2022-10-11T06:10:25.825Z,4.28
2022-10-11T06:12:52.560Z,4.47
2022-10-11T06:15:19.154Z,4.30
2022-10-11T06:17:47.148Z,4.10
2022-10-11T06:20:14.343Z,5.55
2022-10-11T06:22:41.017Z,4.07
2022-10-11T06:25:07.901Z,4.27
2022-10-11T06:27:34.465Z,4.65
2022-10-11T06:30:00.957Z,5.80
2022-10-11T06:32:27.481Z,4.25
2022-10-11T06:34:54.069Z,4.88
2022-10-11T06:37:20.674Z,4.93
2022-10-11T06:39:47.165Z,3.75
2022-10-11T06:42:14.006Z,4.82
2022-10-11T06:44:40.510Z,4.35
2022-10-11T06:47:08.001Z,4.05
2022-10-11T06:49:35.256Z,4.17
2022-10-11T06:52:01.914Z,4.13
2022-10-11T06:54:28.424Z,4.18
2022-10-11T06:56:54.919Z,3.88
2022-10-11T06:59:21.432Z,4.30
2022-10-11T07:01:47.927Z,4.67
2022-10-11T07:04:14.449Z,3.80
2022-10-11T07:06:41.645Z,4.15
2022-10-11T07:09:08.597Z,4.18
2022-10-11T07:11:35.315Z,4.50
2022-10-11T07:14:07.461Z,3.67
2022-10-11T07:16:36.580Z,3.90
2022-10-11T07:19:05.874Z,3.67
2022-10-11T07:21:34.068Z,3.75
2022-10-11T07:24:01.727Z,4.45
2022-10-11T07:26:32.406Z,3.53
2022-10-11T07:29:00.565Z,3.40
2022-10-11T07:31:27.574Z,3.55
2022-10-11T07:33:54.077Z,3.35
2022-10-11T07:36:20.758Z,3.28
2022-10-11T07:38:47.532Z,3.17
2022-10-11T07:41:14.624Z,2.83
2022-10-11T07:43:43.376Z,3.58
2022-10-11T07:46:10.871Z,3.05
2022-10-11T07:48:38.319Z,4.20
2022-10-11T07:51:09.189Z,3.03
2022-10-11T07:53:44.177Z,3.88
2022-10-11T07:56:12.630Z,2.75
2022-10-11T07:58:41.016Z,3.45
2022-10-11T08:01:08.961Z,2.30
2022-10-11T08:03:37.284Z,2.87
2022-10-11T08:06:07.429Z,2.60
2022-10-11T08:08:34.390Z,2.55
2022-10-11T08:11:01.277Z,2.35
2022-10-11T08:13:28.434Z,2.72
2022-10-11T08:16:19.038Z,2.33
2022-10-11T08:18:45.779Z,2.92
2022-10-11T08:21:14.882Z,2.28
2022-10-11T08:23:42.060Z,2.67
2022-10-11T08:26:09.724Z,3.75
2022-10-11T08:28:37.020Z,2.53
2022-10-11T08:31:04.347Z,2.55
2022-10-11T08:33:31.238Z,3.72
2022-10-11T08:35:58.395Z,3.42
2022-10-11T08:38:25.474Z,2.20
2022-10-11T08:40:55.288Z,2.13
2022-10-11T08:43:31.091Z,2.22
2022-10-11T08:46:02.894Z,2.63
2022-10-11T08:48:35.621Z,2.80
2022-10-11T08:51:12.019Z,2.92
2022-10-11T08:53:47.958Z,1.97
2022-10-11T08:56:16.359Z,2.42
2022-10-11T08:58:51.710Z,2.45
2022-10-11T09:01:24.981Z,2.15
2022-10-11T09:03:52.142Z,2.42
2022-10-11T09:06:18.640Z,2.00
2022-10-11T09:09:19.328Z,1.80
2022-10-11T09:12:05.503Z,2.72
2022-10-11T09:14:31.987Z,1.65
2022-10-11T09:17:21.231Z,1.90
2022-10-11T09:20:00.778Z,2.13
2022-10-11T09:22:49.259Z,2.05
2022-10-11T09:25:24.250Z,2.28
2022-10-11T09:28:13.470Z,1.50
2022-10-11T09:30:48.305Z,1.58
2022-10-11T09:33:19.144Z,1.77
2022-10-11T09:35:49.584Z,1.50
2022-10-11T09:38:27.985Z,1.75
2022-10-11T09:41:06.016Z,2.25
2022-10-11T09:43:32.644Z,1.60
2022-10-11T09:45:59.319Z,1.57
2022-10-11T09:48:38.803Z,1.90
2022-10-11T09:51:11.769Z,1.45
2022-10-11T09:53:59.159Z,1.58
2022-10-11T09:56:29.353Z,2.30
2022-10-11T09:59:28.461Z,2.30
2022-10-11T10:02:13.482Z,1.13
2022-10-11T10:05:09.249Z,1.73
2022-10-11T10:07:38.255Z,1.23
2022-10-11T10:10:46.053Z,1.55
2022-10-11T10:13:21.983Z,1.97
2022-10-11T10:15:51.897Z,1.40
2022-10-11T10:18:24.768Z,1.20
2022-10-11T10:20:54.743Z,1.27
2022-10-11T10:23:26.611Z,1.30
2022-10-11T10:26:10.519Z,1.60
2022-10-11T10:28:37.286Z,3.17
2022-10-11T10:31:03.939Z,1.88
2022-10-11T10:33:34.157Z,1.05
2022-10-11T10:36:03.377Z,1.13
2022-10-11T10:38:37.428Z,0.73
2022-10-11T10:41:11.850Z,1.23
2022-10-11T10:43:41.844Z,1.33
2022-10-11T10:46:19.442Z,0.98
2022-10-11T10:49:41.633Z,2.08
2022-10-11T10:52:13.086Z,1.30
2022-10-11T10:54:43.343Z,1.20
2022-10-11T10:57:17.329Z,1.60
2022-10-11T11:00:02.800Z,1.48
2022-10-11T11:02:41.306Z,1.45
2022-10-11T11:05:21.411Z,1.30
2022-10-11T11:08:07.270Z,1.23
2022-10-11T11:10:47.461Z,1.20
2022-10-11T11:13:35.428Z,0.90
2022-10-11T11:16:13.903Z,2.47
2022-10-11T11:18:46.209Z,1.07
2022-10-11T11:21:34.981Z,1.15
2022-10-11T11:24:21.189Z,2.67
2022-10-11T11:26:59.075Z,1.85
2022-10-11T11:29:53.116Z,1.30
2022-10-11T11:32:49.644Z,0.60
2022-10-11T11:35:41.293Z,0.68
2022-10-11T11:38:39.229Z,0.65
2022-10-11T11:41:13.293Z,0.65
2022-10-11T11:43:56.664Z,0.65
2022-10-11T11:46:28.722Z,1.43
2022-10-11T11:48:58.726Z,1.13
2022-10-11T11:51:32.376Z,1.25
2022-10-11T11:54:20.696Z,1.08
2022-10-11T11:57:27.556Z,1.23
2022-10-11T12:00:06.097Z,1.03
2022-10-11T12:02:38.568Z,0.70
2022-10-11T12:05:10.259Z,0.70
2022-10-11T12:07:58.318Z,1.00
2022-10-11T12:10:30.418Z,1.25
2022-10-11T12:13:15.312Z,0.93
2022-10-11T12:16:06.248Z,1.10
2022-10-11T12:18:37.188Z,0.82
2022-10-11T12:21:20.179Z,0.80
2022-10-11T12:23:50.175Z,1.83
2022-10-11T12:26:28.107Z,0.80
2022-10-11T12:29:28.680Z,0.60
2022-10-11T12:31:58.692Z,1.35
2022-10-11T12:34:43.600Z,1.40
2022-10-11T12:37:22.584Z,0.95
2022-10-11T12:39:59.039Z,1.17
2022-10-11T12:42:32.099Z,1.35
2022-10-11T12:45:21.987Z,0.90
2022-10-11T12:48:21.597Z,0.85
2022-10-11T12:51:19.171Z,1.10
2022-10-11T12:54:25.945Z,1.20
2022-10-11T12:57:12.032Z,0.85
2022-10-11T12:59:45.219Z,1.58
2022-10-11T13:02:29.285Z,0.88
2022-10-11T13:05:20.840Z,1.20
2022-10-11T13:07:48.022Z,1.17
2022-10-11T13:10:16.335Z,1.27
2022-10-11T13:12:45.172Z,0.90
2022-10-11T13:15:16.954Z,0.93
2022-10-11T13:17:43.518Z,1.98
2022-10-11T13:20:16.560Z,0.87
2022-10-11T13:22:47.294Z,0.90
2022-10-11T13:25:22.990Z,0.70
2022-10-11T13:27:52.540Z,0.98
2022-10-11T13:30:29.742Z,1.05
2022-10-11T13:32:57.560Z,1.03
2022-10-11T13:35:38.164Z,0.90
2022-10-11T13:38:08.948Z,1.00
2022-10-11T13:40:35.980Z,2.30
2022-10-11T13:43:05.576Z,0.90
2022-10-11T13:45:35.817Z,0.87
2022-10-11T13:48:02.872Z,1.52
2022-10-11T13:50:33.564Z,0.93
2022-10-11T13:53:01.662Z,1.65
2022-10-11T13:55:35.772Z,1.15
2022-10-11T13:58:18.493Z,1.20
2022-10-11T14:00:54.318Z,1.02
2022-10-11T14:03:21.881Z,1.40
2022-10-11T14:05:59.521Z,1.00
2022-10-11T14:08:39.968Z,1.38
2022-10-11T14:11:07.983Z,1.13
2022-10-11T14:13:41.622Z,1.00
2022-10-11T14:16:30.070Z,1.23
2022-10-11T14:18:59.532Z,1.70
2022-10-11T14:21:30.721Z,1.27
2022-10-11T14:24:05.105Z,1.57
2022-10-11T14:26:35.922Z,0.77
2022-10-11T14:29:13.588Z,1.05
2022-10-11T14:31:42.140Z,0.85
2022-10-11T14:34:17.720Z,1.00
2022-10-11T14:36:44.263Z,1.00
2022-10-11T14:39:18.775Z,1.02
2022-10-11T14:41:45.627Z,1.13
2022-10-11T14:44:13.040Z,0.68
2022-10-11T14:46:40.953Z,1.17
2022-10-11T14:49:16.176Z,0.93
2022-10-11T14:51:43.668Z,1.10
2022-10-11T14:54:10.500Z,1.25
2022-10-11T14:56:37.042Z,1.65
2022-10-11T14:59:03.614Z,1.33
2022-10-11T15:01:30.226Z,1.60
2022-10-11T15:03:56.833Z,0.98
2022-10-11T15:06:30.061Z,0.95
2022-10-11T15:08:56.594Z,1.20
2022-10-11T15:11:24.069Z,1.92
2022-10-11T15:13:50.901Z,1.27
2022-10-11T15:16:20.459Z,1.20
2022-10-11T15:18:50.999Z,1.58
2022-10-11T15:21:19.731Z,1.15
2022-10-11T15:23:47.087Z,1.20
2022-10-11T15:26:15.763Z,1.27
2022-10-11T15:28:43.261Z,1.20
2022-10-11T15:31:10.824Z,1.77
2022-10-11T15:33:38.490Z,1.30
2022-10-11T15:36:08.443Z,1.30
2022-10-11T15:38:35.238Z,1.40
2022-10-11T15:41:01.920Z,1.08
2022-10-11T15:43:28.527Z,1.38
2022-10-11T15:45:56.411Z,1.48
2022-10-11T15:48:26.357Z,1.73
2022-10-11T15:50:54.627Z,1.93
2022-10-11T15:53:24.841Z,2.50
2022-10-11T15:55:54.004Z,1.90
2022-10-11T15:58:22.308Z,2.17
2022-10-11T16:00:51.229Z,2.25
2022-10-11T16:03:18.384Z,2.13
2022-10-11T16:05:45.057Z,1.80
2022-10-11T16:08:12.054Z,2.30
2022-10-11T16:10:39.438Z,2.60
2022-10-11T16:13:06.203Z,2.25
2022-10-11T16:15:32.798Z,1.80
2022-10-11T16:17:59.351Z,2.38
2022-10-11T16:20:25.905Z,2.45
2022-10-11T16:22:54.397Z,2.53
2022-10-11T16:25:22.046Z,2.15
2022-10-11T16:27:48.587Z,2.10
2022-10-11T16:30:16.231Z,2.15
2022-10-11T16:32:44.435Z,2.58
2022-10-11T16:35:12.780Z,2.75
2022-10-11T16:37:39.353Z,2.35
2022-10-11T16:40:07.713Z,2.20
2022-10-11T16:42:34.356Z,2.10
2022-10-11T16:45:00.921Z,2.13
2022-10-11T16:47:27.609Z,2.22
2022-10-11T16:49:54.203Z,3.20
2022-10-11T16:52:21.196Z,2.40
2022-10-11T16:54:48.529Z,2.70
2022-10-11T16:57:17.573Z,2.97
2022-10-11T16:59:44.570Z,3.50
2022-10-11T17:02:17.158Z,3.20
2022-10-11T17:04:44.144Z,4.43
2022-10-11T17:07:12.997Z,5.95
2022-10-11T17:09:44.475Z,5.80
2022-10-11T17:12:13.845Z,4.85
2022-10-11T17:14:41.086Z,5.97
2022-10-11T17:17:09.757Z,7.60
2022-10-11T17:19:42.609Z,7.03
2022-10-11T17:22:13.456Z,8.13
2022-10-11T17:24:40.278Z,6.80
2022-10-11T17:27:07.088Z,8.43
2022-10-11T17:29:36.137Z,8.20
2022-10-11T17:32:03.067Z,8.05
2022-10-11T17:34:29.608Z,8.13
2022-10-11T17:36:56.313Z,6.38
2022-10-11T17:39:23.728Z,9.13
2022-10-11T17:41:51.205Z,7.00
2022-10-11T17:44:18.575Z,8.30
2022-10-11T17:46:46.057Z,8.30
2022-10-11T17:49:13.481Z,8.77
2022-10-11T17:51:40.586Z,9.80
2022-10-11T17:54:12.279Z,14.77
2022-10-11T17:56:40.545Z,14.90
2022-10-11T17:59:08.135Z,31.92
2022-10-11T18:01:35.326Z,22.08
2022-10-11T18:04:04.264Z,13.65
2022-10-11T18:06:34.120Z,13.23
2022-10-11T18:09:02.475Z,11.88
2022-10-11T18:11:29.941Z,11.70
2022-10-11T18:13:56.573Z,10.73
2022-10-11T18:16:26.903Z,10.50
2022-10-11T18:18:54.263Z,9.43
2022-10-11T18:21:20.904Z,11.15
2022-10-11T18:23:47.436Z,10.57
2022-10-11T18:26:19.754Z,10.18
2022-10-11T18:28:47.011Z,12.23
2022-10-11T18:31:19.691Z,11.57
2022-10-11T18:33:47.300Z,11.57
2022-10-11T18:36:16.576Z,11.52
2022-10-11T18:38:46.649Z,10.98
2022-10-11T18:41:18.714Z,10.05
2022-10-11T18:43:53.607Z,10.07
2022-10-11T18:46:21.441Z,9.82
2022-10-11T18:48:50.630Z,10.07
2022-10-11T18:51:22.805Z,10.07
2022-10-11T18:53:50.198Z,10.20
2022-10-11T18:56:20.594Z,9.47
2022-10-11T18:58:49.064Z,10.30
2022-10-11T19:01:21.450Z,9.60
2022-10-11T19:03:52.461Z,8.57
2022-10-11T19:06:22.259Z,8.48
2022-10-11T19:08:53.105Z,9.00
2022-10-11T19:11:22.286Z,9.63
2022-10-11T19:13:55.476Z,9.70
2022-10-11T19:16:22.001Z,9.13
2022-10-11T19:18:50.108Z,11.30
2022-10-11T19:21:16.860Z,9.43
2022-10-11T19:23:45.511Z,10.52
2022-10-11T19:26:24.294Z,11.55
2022-10-11T19:29:02.529Z,10.25
2022-10-11T19:31:30.429Z,10.60
2022-10-11T19:33:58.182Z,10.30
2022-10-11T19:36:24.740Z,11.15
2022-10-11T19:38:52.556Z,10.32
2022-10-11T19:41:20.006Z,9.93
2022-10-11T19:43:46.954Z,11.55
2022-10-11T19:46:27.287Z,10.87
2022-10-11T19:49:03.441Z,11.00
2022-10-11T19:51:34.890Z,9.35
2022-10-11T19:54:03.914Z,10.57
2022-10-11T19:56:32.606Z,9.93
2022-10-11T19:59:00.368Z,9.80
2022-10-11T20:01:30.059Z,9.52
2022-10-11T20:04:03.474Z,11.02
2022-10-11T20:06:37.185Z,11.95
2022-10-11T20:09:27.959Z,11.77
2022-10-11T20:11:51.864Z,12.13
2022-10-11T20:14:18.341Z,12.70
2022-10-11T20:16:44.902Z,11.93
2022-10-11T20:19:11.596Z,11.48
2022-10-11T20:21:38.667Z,11.75
2022-10-11T20:24:06.925Z,11.67
2022-10-11T20:26:34.309Z,10.98
2022-10-11T20:29:00.863Z,12.90
2022-10-11T20:31:31.139Z,11.68
2022-10-11T20:34:01.236Z,11.57
2022-10-11T20:36:30.219Z,10.90
2022-10-11T20:38:58.515Z,10.88
2022-10-11T20:41:27.762Z,14.90
2022-10-11T20:43:56.303Z,16.42
2022-10-11T20:46:25.588Z,14.60
2022-10-11T20:49:01.324Z,12.93
2022-10-11T20:51:33.285Z,13.52
2022-10-11T20:54:00.694Z,13.35
2022-10-11T20:56:27.633Z,12.05
2022-10-11T20:58:56.319Z,12.48
2022-10-11T21:01:28.287Z,13.70
2022-10-11T21:03:57.800Z,12.63
2022-10-11T21:06:25.042Z,13.27
2022-10-11T21:08:51.568Z,13.82
2022-10-11T21:11:18.049Z,13.02
2022-10-11T21:13:44.622Z,12.90
2022-10-11T21:16:13.889Z,11.63
2022-10-11T21:18:40.552Z,12.40
2022-10-11T21:21:08.895Z,12.63
2022-10-11T21:23:35.462Z,12.55
2022-10-11T21:26:07.340Z,13.33
2022-10-11T21:28:34.144Z,13.00
2022-10-11T21:31:15.768Z,12.48
2022-10-11T21:33:43.815Z,10.88
2022-10-11T21:36:21.700Z,12.25
2022-10-11T21:38:49.408Z,12.33
2022-10-11T21:41:18.563Z,12.93
2022-10-11T21:43:45.420Z,15.32
2022-10-11T21:46:54.019Z,14.48
2022-10-11T21:49:15.663Z,13.43
2022-10-11T21:51:42.479Z,11.50
2022-10-11T21:54:08.988Z,10.88
2022-10-11T21:56:35.989Z,10.77
2022-10-11T21:59:05.376Z,11.07
2022-10-11T22:01:34.618Z,11.85
2022-10-11T22:04:01.195Z,11.00
2022-10-11T22:06:27.732Z,11.20
2022-10-11T22:08:54.247Z,11.07
2022-10-11T22:11:20.796Z,10.93
2022-10-11T22:13:47.315Z,12.10
2022-10-11T22:16:14.294Z,10.90
2022-10-11T22:18:41.894Z,10.50
2022-10-11T22:21:17.584Z,11.27
2022-10-11T22:23:46.832Z,10.32
2022-10-11T22:26:16.081Z,10.18
2022-10-11T22:28:43.089Z,9.27
2022-10-11T22:31:10.928Z,9.73
2022-10-11T22:33:37.554Z,9.55
2022-10-11T22:36:08.608Z,9.55
2022-10-11T22:38:36.944Z,10.23
2022-10-11T22:41:03.630Z,11.70
2022-10-11T22:43:30.228Z,10.27
2022-10-11T22:45:56.695Z,10.63
2022-10-11T22:48:23.245Z,10.18
2022-10-11T22:50:49.769Z,10.60
2022-10-11T22:53:16.332Z,11.43
2022-10-11T22:55:43.039Z,10.48
2022-10-11T22:58:09.821Z,11.45
2022-10-11T23:00:36.740Z,11.13
2022-10-11T23:03:03.717Z,11.98
2022-10-11T23:05:30.252Z,11.30
2022-10-11T23:07:56.716Z,11.45
2022-10-11T23:10:23.226Z,11.15
2022-10-11T23:12:49.711Z,10.57
2022-10-11T23:15:16.226Z,11.57
2022-10-11T23:17:42.764Z,10.37
2022-10-11T23:20:09.861Z,11.05
2022-10-11T23:22:36.364Z,12.13
2022-10-11T23:25:02.951Z,10.25
2022-10-11T23:27:30.228Z,11.45
2022-10-11T23:29:56.755Z,9.60
2022-10-11T23:32:23.750Z,9.25
2022-10-11T23:34:51.437Z,9.75
2022-10-11T23:37:18.010Z,9.10
2022-10-11T23:39:44.522Z,10.10
2022-10-11T23:42:11.026Z,9.87
2022-10-11T23:44:37.490Z,8.85
2022-10-11T23:47:04.043Z,9.63
2022-10-11T23:49:30.529Z,9.38
2022-10-11T23:51:57.315Z,8.25
2022-10-11T23:54:23.965Z,8.17
2022-10-11T23:56:50.473Z,7.85
2022-10-11T23:59:16.983Z,8.77
